Time;durP1;ratioP1;P1;durP2;ratioP2;P2;SDS_P1;SDS_P2;PMS_P1;PMS_P2;Temp;Humidity;BMP_temperature;BMP_pressure;BME280_temperature;BME280_humidity;BME280_pressure;Samples;Min_cycle;Max_cycle;Signal;HPM_P1;HPM_P2
2021/11/13 00:01:31;;;;;;;49.85;36.22;;;12.50;99.90;;;;;;5054144;28;20040;-50
2021/11/13 00:03:57;;;;;;;50.88;37.67;;;12.60;93.90;;;;;;5053313;28;20399;-55
2021/11/13 00:06:23;;;;;;;52.20;36.45;;;12.60;94.20;;;;;;5041660;28;20219;-52
2021/11/13 00:08:48;;;;;;;48.70;35.30;;;12.70;94.00;;;;;;5043242;28;20186;-56
2021/11/13 00:11:14;;;;;;;50.20;34.15;;;12.70;94.00;;;;;;5043625;28;20029;-54
2021/11/13 00:13:40;;;;;;;45.92;34.92;;;12.50;94.00;;;;;;5053761;28;20040;-54
2021/11/13 00:16:07;;;;;;;49.25;34.67;;;12.60;94.10;;;;;;5049414;28;20114;-56
2021/11/13 00:18:38;;;;;;;47.17;34.50;;;12.50;94.10;;;;;;5054637;28;20473;-55
2021/11/13 00:21:05;;;;;;;45.60;34.47;;;12.60;94.10;;;;;;5047283;28;20049;-56
2021/11/13 00:23:32;;;;;;;49.17;33.88;;;12.50;94.30;;;;;;5046857;28;20029;-56
2021/11/13 00:25:58;;;;;;;48.25;33.45;;;12.40;94.10;;;;;;5042006;28;20072;-54
2021/11/13 00:28:25;;;;;;;48.92;34.55;;;12.40;94.30;;;;;;5039502;28;20082;-57
2021/11/13 00:30:51;;;;;;;48.88;34.95;;;12.30;94.40;;;;;;5054186;28;20128;-56
2021/11/13 00:33:17;;;;;;;50.72;35.15;;;12.30;94.60;;;;;;5044900;28;20061;-54
2021/11/13 00:35:43;;;;;;;50.17;34.75;;;12.30;94.40;;;;;;5037941;28;20060;-56
2021/11/13 00:38:09;;;;;;;48.40;34.83;;;12.40;94.50;;;;;;5048905;28;20075;-55
2021/11/13 00:40:35;;;;;;;44.53;33.30;;;12.40;94.30;;;;;;5053931;28;20048;-53
2021/11/13 00:43:01;;;;;;;45.47;33.30;;;12.50;94.10;;;;;;5041499;28;20484;-56
2021/11/13 00:45:27;;;;;;;44.33;33.38;;;12.60;93.90;;;;;;5039941;28;20100;-56
2021/11/13 00:47:53;;;;;;;42.92;32.15;;;12.60;93.70;;;;;;5049807;28;20104;-56
2021/11/13 00:50:19;;;;;;;44.75;32.53;;;12.50;94.00;;;;;;5044800;28;20025;-56
2021/11/13 00:52:46;;;;;;;48.25;34.00;;;12.60;93.80;;;;;;5050791;28;20044;-55
2021/11/13 00:55:14;;;;;;;43.15;32.83;;;12.70;93.90;;;;;;5046216;28;20087;-55
2021/11/13 00:57:40;;;;;;;46.15;31.83;;;12.70;93.40;;;;;;5044515;28;20111;-56
2021/11/13 01:00:08;;;;;;;46.60;33.08;;;12.80;93.30;;;;;;5054089;28;20136;-56
2021/11/13 01:02:34;;;;;;;46.10;32.53;;;12.70;93.50;;;;;;5051378;28;20059;-56
2021/11/13 01:04:59;;;;;;;45.10;32.78;;;12.70;93.30;;;;;;5054884;28;20053;-57
2021/11/13 01:07:25;;;;;;;41.50;31.98;;;12.60;93.40;;;;;;5052235;28;20029;-58
2021/11/13 01:09:52;;;;;;;41.53;31.02;;;12.60;93.50;;;;;;5052498;28;20024;-57
2021/11/13 01:12:18;;;;;;;44.63;34.63;;;12.60;93.30;;;;;;5050387;28;20060;-58
2021/11/13 01:14:43;;;;;;;49.45;35.17;;;12.60;93.40;;;;;;5045538;28;20060;-56
2021/11/13 01:17:12;;;;;;;51.83;36.28;;;12.50;93.30;;;;;;5042360;28;20029;-55
2021/11/13 01:19:39;;;;;;;53.65;37.83;;;12.60;93.40;;;;;;5043438;28;20368;-57
2021/11/13 01:22:06;;;;;;;58.03;39.80;;;12.60;93.40;;;;;;5043700;28;20055;-56
2021/11/13 01:24:32;;;;;;;58.63;39.20;;;12.70;93.50;;;;;;5046216;28;20028;-58
2021/11/13 01:26:58;;;;;;;58.28;40.28;;;12.60;93.70;;;;;;5039913;28;20048;-58
2021/11/13 01:29:23;;;;;;;54.05;37.97;;;12.40;94.10;;;;;;5050111;28;20482;-58
2021/11/13 01:31:49;;;;;;;54.15;37.92;;;12.30;94.60;;;;;;5051318;28;20026;-57
2021/11/13 01:34:15;;;;;;;53.13;36.90;;;12.40;94.20;;;;;;5053194;28;20032;-59
2021/11/13 01:36:41;;;;;;;50.85;37.17;;;12.40;94.40;;;;;;5052108;28;20078;-57
2021/11/13 01:39:06;;;;;;;51.22;36.13;;;12.50;94.10;;;;;;5034111;28;20025;-55
2021/11/13 01:41:32;;;;;;;50.35;34.75;;;12.40;94.30;;;;;;5047759;28;20045;-57
2021/11/13 01:43:58;;;;;;;46.15;35.15;;;12.40;94.30;;;;;;5052444;28;20032;-57
2021/11/13 01:46:24;;;;;;;47.58;35.38;;;12.50;94.20;;;;;;5052636;28;20031;-56
2021/11/13 01:48:50;;;;;;;48.05;35.85;;;12.60;94.00;;;;;;5046046;28;20037;-56
2021/11/13 01:51:21;;;;;;;48.13;35.80;;;12.60;93.80;;;;;;5052804;28;20033;-55
2021/11/13 01:53:49;;;;;;;49.45;35.72;;;12.60;93.60;;;;;;5043965;28;20446;-57
2021/11/13 01:56:20;;;;;;;45.15;34.40;;;12.60;93.50;;;;;;5053046;28;20036;-58
2021/11/13 01:58:49;;;;;;;45.45;34.38;;;12.60;93.60;;;;;;5046692;28;20021;-57
2021/11/13 02:01:15;;;;;;;42.45;33.90;;;12.60;93.80;;;;;;5046654;28;20052;-57
2021/11/13 02:03:43;;;;;;;43.55;33.97;;;12.50;93.90;;;;;;5047961;28;20043;-57
2021/11/13 02:06:09;;;;;;;44.78;33.30;;;12.50;93.90;;;;;;5028275;28;20032;-58
2021/11/13 02:08:34;;;;;;;46.42;34.80;;;12.40;93.80;;;;;;5050032;28;20021;-55
2021/11/13 02:11:01;;;;;;;45.45;33.95;;;12.50;94.10;;;;;;5047660;28;20368;-56
2021/11/13 02:13:26;;;;;;;46.35;33.15;;;12.40;93.50;;;;;;5051638;28;20040;-58
2021/11/13 02:15:52;;;;;;;50.70;36.65;;;12.40;94.00;;;;;;5049333;28;20444;-58
2021/11/13 02:18:18;;;;;;;47.35;34.38;;;12.30;93.80;;;;;;5046363;28;20035;-56
2021/11/13 02:20:44;;;;;;;51.25;35.97;;;12.30;94.10;;;;;;5047204;28;20140;-56
2021/11/13 02:23:16;;;;;;;48.85;34.47;;;12.20;94.30;;;;;;5047890;28;20025;-57
2021/11/13 02:25:43;;;;;;;48.72;35.03;;;12.20;94.20;;;;;;5043902;28;20029;-57
2021/11/13 02:28:11;;;;;;;47.00;34.45;;;12.20;93.80;;;;;;5051513;28;20029;-57
2021/11/13 02:30:37;;;;;;;49.53;34.92;;;12.00;94.70;;;;;;5046645;28;20117;-57
2021/11/13 02:33:03;;;;;;;52.03;34.83;;;12.00;94.60;;;;;;5052522;28;20449;-58
2021/11/13 02:35:31;;;;;;;50.72;36.05;;;12.10;94.40;;;;;;5050896;28;20029;-58
2021/11/13 02:37:58;;;;;;;54.45;36.30;;;12.00;94.80;;;;;;5052334;28;20041;-56
2021/11/13 02:40:24;;;;;;;51.10;35.40;;;12.20;94.60;;;;;;5050265;28;20536;-58
2021/11/13 02:42:50;;;;;;;50.75;35.05;;;12.20;93.90;;;;;;5048675;28;20037;-55
2021/11/13 02:45:17;;;;;;;53.80;37.10;;;12.20;94.30;;;;;;5049081;28;20390;-54
2021/11/13 02:47:47;;;;;;;54.85;36.40;;;12.30;94.10;;;;;;5037770;28;20026;-55
2021/11/13 02:50:16;;;;;;;57.28;36.08;;;12.10;94.40;;;;;;5036114;28;20033;-54
2021/11/13 02:52:53;;;;;;;53.90;35.97;;;12.20;94.20;;;;;;5049555;28;20029;-56
2021/11/13 02:55:19;;;;;;;50.08;36.85;;;12.40;94.00;;;;;;5033314;28;20084;-54
2021/11/13 02:57:45;;;;;;;59.03;40.92;;;12.30;93.80;;;;;;5040517;28;20029;-52
2021/11/13 03:00:13;;;;;;;56.10;37.92;;;12.40;94.00;;;;;;5038431;28;20025;-53
2021/11/13 03:02:40;;;;;;;59.55;38.58;;;12.20;94.10;;;;;;5051701;28;20124;-57
2021/11/13 03:05:31;;;;;;;61.60;40.17;;;12.40;94.10;;;;;;5048808;28;20025;-52
2021/11/13 03:08:00;;;;;;;54.88;36.00;;;12.40;93.70;;;;;;5035802;28;20203;-56
2021/11/13 03:10:30;;;;;;;56.15;35.90;;;12.30;94.00;;;;;;5036776;28;20017;-56
2021/11/13 03:12:55;;;;;;;52.30;37.20;;;12.20;94.10;;;;;;5046936;28;20163;-54
2021/11/13 03:15:22;;;;;;;54.55;39.75;;;12.20;94.40;;;;;;5050883;28;20055;-54
2021/11/13 03:18:03;;;;;;;54.47;37.22;;;12.30;94.60;;;;;;5048874;28;20078;-53
2021/11/13 03:20:30;;;;;;;57.33;38.25;;;12.20;94.10;;;;;;5051397;28;20049;-53
2021/11/13 03:22:58;;;;;;;59.17;38.30;;;12.10;94.70;;;;;;5043606;28;20026;-55
2021/11/13 03:25:28;;;;;;;62.60;39.78;;;12.20;94.80;;;;;;5052041;28;20543;-56
2021/11/13 03:27:58;;;;;;;57.50;39.83;;;12.30;94.50;;;;;;5050458;28;20071;-53
2021/11/13 03:30:24;;;;;;;57.10;38.35;;;12.30;94.30;;;;;;5052328;28;20025;-52
2021/11/13 03:32:52;;;;;;;56.50;37.72;;;12.20;94.60;;;;;;5044012;28;20085;-57
2021/11/13 03:35:26;;;;;;;62.60;40.38;;;12.20;94.30;;;;;;5053818;28;20029;-53
2021/11/13 03:37:52;;;;;;;;;;;12.10;94.60;;;;;;5048116;28;20167;-54
2021/11/13 03:40:18;;;;;;;58.95;38.97;;;12.10;95.20;;;;;;5050831;28;20006;-55
2021/11/13 03:42:43;;;;;;;58.72;37.35;;;12.00;93.60;;;;;;5054253;28;20029;-56
2021/11/13 03:45:10;;;;;;;59.72;37.45;;;12.00;93.30;;;;;;5049683;28;20021;-54
2021/11/13 03:47:35;;;;;;;62.22;39.63;;;12.10;93.40;;;;;;5044207;28;20032;-55
2021/11/13 03:50:01;;;;;;;52.30;36.92;;;12.00;93.40;;;;;;5054477;28;20493;-54
2021/11/13 03:52:27;;;;;;;57.72;38.08;;;12.00;93.40;;;;;;5047750;28;20069;-56
2021/11/13 03:54:53;;;;;;;64.50;40.42;;;12.00;93.90;;;;;;5049639;28;20501;-57
2021/11/13 03:57:18;;;;;;;58.75;37.97;;;12.10;94.20;;;;;;5038990;28;20033;-56
2021/11/13 03:59:44;;;;;;;55.63;37.92;;;12.00;94.60;;;;;;5054732;28;20041;-56
2021/11/13 04:02:11;;;;;;;58.75;38.38;;;12.10;95.00;;;;;;5047043;28;20055;-57
2021/11/13 04:04:40;;;;;;;57.30;38.17;;;;;;;;;;5050948;28;20029;-57
2021/11/13 04:07:06;;;;;;;59.22;37.85;;;11.90;94.40;;;;;;5037391;28;20045;-54
2021/11/13 04:09:33;;;;;;;62.35;38.47;;;11.80;97.10;;;;;;5054202;28;20538;-55
2021/11/13 04:12:04;;;;;;;63.25;40.63;;;12.00;95.30;;;;;;5048679;28;20033;-54
2021/11/13 04:14:31;;;;;;;63.33;40.13;;;11.90;94.60;;;;;;5050380;28;20028;-55
2021/11/13 04:16:57;;;;;;;64.03;38.50;;;11.90;94.50;;;;;;5055094;28;20495;-54
2021/11/13 04:19:22;;;;;;;60.33;38.92;;;12.00;94.00;;;;;;5045977;28;20046;-54
2021/11/13 04:21:48;;;;;;;64.22;40.08;;;12.00;94.20;;;;;;5046010;28;20387;-53
2021/11/13 04:24:14;;;;;;;62.63;39.95;;;11.90;94.00;;;;;;5053608;28;20028;-52
2021/11/13 04:26:40;;;;;;;65.63;39.95;;;11.90;94.20;;;;;;5042781;28;20470;-52
2021/11/13 04:29:06;;;;;;;65.57;39.15;;;12.00;93.80;;;;;;5036816;28;20476;-56
2021/11/13 04:31:31;;;;;;;61.65;37.85;;;12.00;93.80;;;;;;5053469;28;20375;-54
2021/11/13 04:34:01;;;;;;;65.45;37.65;;;12.00;93.50;;;;;;5048709;28;20075;-52
2021/11/13 04:36:31;;;;;;;64.72;40.00;;;11.90;92.60;;;;;;5044751;28;20147;-55
2021/11/13 04:38:57;;;;;;;74.28;43.42;;;11.80;93.00;;;;;;5055128;28;20470;-56
2021/11/13 04:41:23;;;;;;;71.30;39.70;;;11.70;92.90;;;;;;5049879;28;20047;-52
2021/11/13 04:43:49;;;;;;;71.00;39.50;;;11.90;92.80;;;;;;5054571;28;20029;-52
2021/11/13 04:46:14;;;;;;;70.78;40.03;;;11.80;92.90;;;;;;5038505;28;20034;-56
2021/11/13 04:48:40;;;;;;;71.85;39.97;;;11.90;92.50;;;;;;5037469;28;20489;-57
2021/11/13 04:51:06;;;;;;;74.95;41.15;;;11.90;92.30;;;;;;5036295;28;20087;-56
2021/11/13 04:53:33;;;;;;;77.32;40.50;;;11.70;92.50;;;;;;5037399;28;20852;-53
2021/11/13 04:55:58;;;;;;;86.18;44.28;;;11.70;92.30;;;;;;5043906;28;20044;-56
2021/11/13 04:58:24;;;;;;;101.00;47.28;;;11.50;92.80;;;;;;5054011;28;20024;-56
2021/11/13 05:00:50;;;;;;;100.53;46.55;;;11.60;98.80;;;;;;5044663;28;20044;-53
2021/11/13 05:03:15;;;;;;;105.25;50.00;;;11.60;99.80;;;;;;5050859;28;20380;-53
2021/11/13 05:05:41;;;;;;;97.85;46.65;;;11.80;99.30;;;;;;5052283;28;20044;-52
2021/11/13 05:08:07;;;;;;;89.65;45.33;;;11.90;99.10;;;;;;5052344;28;20036;-55
2021/11/13 05:10:32;;;;;;;84.30;45.33;;;11.80;99.30;;;;;;5036274;28;20546;-56
2021/11/13 05:12:58;;;;;;;94.07;46.05;;;11.70;99.90;;;;;;5050829;28;20052;-53
2021/11/13 05:15:24;;;;;;;87.15;43.65;;;11.70;99.90;;;;;;5062020;28;20032;-54
2021/11/13 05:17:50;;;;;;;87.25;44.38;;;11.60;95.00;;;;;;5050677;28;20025;-57
2021/11/13 05:20:18;;;;;;;87.05;45.72;;;11.60;95.20;;;;;;5051308;28;20122;-54
2021/11/13 05:22:45;;;;;;;82.95;41.95;;;11.50;95.40;;;;;;5052370;28;20063;-53
2021/11/13 05:25:13;;;;;;;76.32;38.42;;;11.70;95.30;;;;;;5052618;28;20029;-54
2021/11/13 05:27:38;;;;;;;73.05;39.30;;;11.70;95.20;;;;;;5052594;28;20040;-53
2021/11/13 05:30:07;;;;;;;62.95;37.75;;;11.60;95.30;;;;;;5048928;28;20386;-55
2021/11/13 05:32:33;;;;;;;75.47;36.83;;;11.60;95.60;;;;;;5051270;28;20490;-55
2021/11/13 05:34:59;;;;;;;62.05;34.83;;;11.50;95.30;;;;;;5067398;28;20064;-52
2021/11/13 05:37:24;;;;;;;59.88;33.65;;;11.50;95.80;;;;;;5046334;28;20565;-56
2021/11/13 05:39:50;;;;;;;49.25;30.05;;;11.60;95.10;;;;;;5045145;28;20051;-53
2021/11/13 05:42:16;;;;;;;48.22;29.23;;;11.50;94.90;;;;;;5043058;28;20041;-54
2021/11/13 05:44:43;;;;;;;50.60;29.98;;;11.40;98.20;;;;;;5053051;28;20029;-54
2021/11/13 05:47:08;;;;;;;44.92;29.55;;;11.50;99.90;;;;;;5051205;28;20029;-52
2021/11/13 05:49:34;;;;;;;44.00;30.40;;;11.60;99.90;;;;;;5048959;28;20548;-57
2021/11/13 05:52:00;;;;;;;48.10;29.25;;;11.50;99.70;;;;;;5052215;28;20024;-56
2021/11/13 05:54:26;;;;;;;44.47;28.70;;;11.50;99.80;;;;;;5049428;28;20104;-55
2021/11/13 05:56:51;;;;;;;47.85;29.52;;;11.60;99.30;;;;;;5047514;28;20075;-55
2021/11/13 05:59:17;;;;;;;52.22;31.33;;;11.80;99.00;;;;;;5052651;28;20033;-57
2021/11/13 06:01:43;;;;;;;47.10;29.48;;;11.70;99.10;;;;;;5045597;28;20050;-56
2021/11/13 06:04:09;;;;;;;45.83;28.63;;;11.60;98.60;;;;;;5040944;28;20044;-53
2021/11/13 06:06:35;;;;;;;41.70;27.73;;;11.50;99.40;;;;;;5041468;28;20041;-55
2021/11/13 06:09:01;;;;;;;40.92;27.48;;;11.60;98.40;;;;;;5046411;28;20025;-52
2021/11/13 06:11:26;;;;;;;40.67;27.70;;;11.60;98.90;;;;;;5050745;28;20028;-54
2021/11/13 06:13:52;;;;;;;42.17;27.92;;;11.60;98.30;;;;;;5050682;28;20040;-53
2021/11/13 06:16:18;;;;;;;43.10;28.33;;;11.60;98.80;;;;;;5051483;28;20108;-56
2021/11/13 06:18:43;;;;;;;40.22;27.85;;;11.80;98.60;;;;;;5047161;28;20026;-54
2021/11/13 06:21:09;;;;;;;41.28;28.52;;;11.80;98.10;;;;;;5047198;28;20076;-55
2021/11/13 06:23:55;;;;;;;38.33;27.83;;;11.80;98.00;;;;;;5052847;28;20031;-56
2021/11/13 06:26:21;;;;;;;39.90;28.08;;;11.80;98.30;;;;;;5045161;28;20395;-55
2021/11/13 06:28:47;;;;;;;44.17;28.15;;;11.90;97.80;;;;;;5034396;28;20032;-55
2021/11/13 06:31:13;;;;;;;38.47;27.15;;;11.90;97.70;;;;;;5041586;28;20042;-52
2021/11/13 06:33:38;;;;;;;43.15;28.23;;;11.80;97.70;;;;;;5049675;28;20112;-56
2021/11/13 06:36:05;;;;;;;39.80;28.52;;;11.90;97.80;;;;;;5049866;28;20124;-54
2021/11/13 06:38:31;;;;;;;42.45;27.48;;;11.90;97.70;;;;;;5067988;28;20025;-52
2021/11/13 06:40:57;;;;;;;39.47;27.17;;;12.00;97.60;;;;;;5051563;28;20569;-52
2021/11/13 06:43:22;;;;;;;41.85;28.52;;;11.90;97.80;;;;;;5050401;28;20437;-54
2021/11/13 06:45:48;;;;;;;41.10;27.42;;;11.90;97.70;;;;;;5043328;28;20033;-52
2021/11/13 06:48:14;;;;;;;42.70;27.85;;;12.00;97.60;;;;;;5036943;28;20036;-57
2021/11/13 06:50:40;;;;;;;42.28;28.17;;;11.90;97.50;;;;;;5048300;28;20029;-56
2021/11/13 06:53:05;;;;;;;41.08;28.50;;;11.90;97.80;;;;;;5050889;28;20033;-57
2021/11/13 06:55:31;;;;;;;46.53;27.65;;;12.00;97.60;;;;;;5051105;28;20096;-55
2021/11/13 06:57:57;;;;;;;42.08;28.30;;;12.10;97.40;;;;;;5036485;28;20045;-56
2021/11/13 07:00:23;;;;;;;39.65;26.73;;;12.00;97.80;;;;;;5046691;28;20124;-56
2021/11/13 07:02:49;;;;;;;43.75;28.13;;;12.00;97.60;;;;;;5050415;28;20033;-54
2021/11/13 07:05:15;;;;;;;46.45;28.88;;;12.00;97.70;;;;;;5048268;28;20041;-56
2021/11/13 07:07:40;;;;;;;42.78;28.27;;;12.00;97.60;;;;;;5049339;28;20108;-54
2021/11/13 07:10:10;;;;;;;43.42;27.63;;;12.10;97.50;;;;;;5046441;28;20024;-54
2021/11/13 07:12:36;;;;;;;46.38;29.17;;;12.10;97.60;;;;;;5052220;28;20033;-55
2021/11/13 07:15:04;;;;;;;42.15;27.83;;;12.10;97.40;;;;;;5045740;28;20104;-55
2021/11/13 07:17:30;;;;;;;49.20;29.23;;;12.00;97.60;;;;;;5047707;28;20491;-55
2021/11/13 07:19:55;;;;;;;46.92;29.15;;;12.00;97.80;;;;;;5055917;28;20055;-56
2021/11/13 07:22:22;;;;;;;49.83;30.65;;;11.90;98.10;;;;;;5055310;28;20041;-56
2021/11/13 07:24:48;;;;;;;53.22;30.88;;;12.00;98.10;;;;;;5056467;28;20025;-52
2021/11/13 07:27:15;;;;;;;50.80;29.67;;;12.00;98.10;;;;;;5054039;28;20036;-56
2021/11/13 07:29:45;;;;;;;49.25;29.75;;;11.90;98.10;;;;;;5054271;28;20028;-54
2021/11/13 07:32:13;;;;;;;57.45;32.03;;;11.90;98.30;;;;;;5055297;28;20064;-54
2021/11/13 07:34:39;;;;;;;49.35;30.52;;;12.00;98.10;;;;;;5056166;28;20417;-54
2021/11/13 07:37:05;;;;;;;56.90;32.90;;;12.00;97.70;;;;;;5055132;28;20086;-53
2021/11/13 07:39:31;;;;;;;55.63;32.92;;;12.00;97.60;;;;;;5056391;28;20360;-52
2021/11/13 07:41:57;;;;;;;53.92;31.08;;;12.00;97.80;;;;;;5055003;28;20033;-53
2021/11/13 07:44:23;;;;;;;59.08;32.78;;;12.10;97.70;;;;;;5056221;28;20429;-56
2021/11/13 07:46:48;;;;;;;51.30;30.70;;;12.10;97.50;;;;;;5055090;28;20029;-58
2021/11/13 07:49:14;;;;;;;52.08;31.70;;;12.30;97.30;;;;;;5056059;28;20021;-53
2021/11/13 07:51:40;;;;;;;52.53;31.23;;;12.20;97.50;;;;;;5055123;28;20029;-54
2021/11/13 07:54:06;;;;;;;56.05;32.72;;;12.20;97.10;;;;;;5054934;28;20029;-51
2021/11/13 07:56:31;;;;;;;53.10;31.58;;;12.20;97.50;;;;;;5053389;28;20389;-54
2021/11/13 07:58:58;;;;;;;57.25;32.17;;;12.10;97.30;;;;;;5054516;28;20031;-54
2021/11/13 08:01:24;;;;;;;57.70;32.40;;;12.20;97.40;;;;;;5054547;28;20049;-55
2021/11/13 08:03:50;;;;;;;59.05;32.25;;;12.20;97.50;;;;;;5054374;28;20471;-52
2021/11/13 08:06:17;;;;;;;51.95;31.25;;;12.30;97.40;;;;;;5052548;28;20087;-55
2021/11/13 08:08:42;;;;;;;60.67;31.98;;;12.30;96.90;;;;;;5055836;28;20027;-53
2021/11/13 08:11:08;;;;;;;56.92;31.73;;;12.20;96.80;;;;;;5054985;28;20370;-57
2021/11/13 08:13:36;;;;;;;58.47;32.65;;;12.20;97.30;;;;;;5054943;28;20021;-55
2021/11/13 08:16:02;;;;;;;67.03;34.00;;;12.30;97.10;;;;;;5055286;28;20056;-52
2021/11/13 08:18:27;;;;;;;61.63;31.63;;;12.30;96.80;;;;;;5041157;28;21321;-55
2021/11/13 08:20:53;;;;;;;59.05;31.63;;;12.40;96.80;;;;;;5053312;28;20101;-57
2021/11/13 08:23:19;;;;;;;51.35;29.00;;;12.20;97.10;;;;;;5054385;28;20025;-57
2021/11/13 08:25:45;;;;;;;52.67;29.95;;;12.20;96.90;;;;;;5053583;28;20119;-55
2021/11/13 08:28:12;;;;;;;57.25;30.27;;;12.20;97.00;;;;;;5054150;28;20032;-56
2021/11/13 08:30:38;;;;;;;52.53;30.98;;;12.30;96.80;;;;;;5055062;28;20028;-52
2021/11/13 08:33:07;;;;;;;51.30;28.48;;;12.50;96.60;;;;;;5054053;28;20044;-57
2021/11/13 08:35:37;;;;;;;52.78;30.83;;;12.60;96.40;;;;;;5053756;28;20033;-54
2021/11/13 08:38:04;;;;;;;52.70;31.58;;;12.70;96.30;;;;;;5054424;28;20052;-53
2021/11/13 08:40:30;;;;;;;51.53;30.65;;;12.60;96.10;;;;;;5054840;28;20109;-53
2021/11/13 08:42:56;;;;;;;49.97;29.98;;;12.60;96.00;;;;;;5052544;28;20475;-56
2021/11/13 08:45:22;;;;;;;51.20;29.90;;;12.60;95.90;;;;;;5054796;28;20036;-51
2021/11/13 08:47:47;;;;;;;48.53;31.77;;;12.70;95.80;;;;;;5052365;28;20033;-57
2021/11/13 08:50:23;;;;;;;50.88;30.50;;;12.80;95.90;;;;;;5053580;28;20040;-56
2021/11/13 08:52:51;;;;;;;47.95;29.73;;;12.80;95.20;;;;;;5041992;28;20486;-57
2021/11/13 08:55:19;;;;;;;53.90;32.67;;;12.70;95.40;;;;;;5033334;28;20030;-56
2021/11/13 08:57:46;;;;;;;53.30;31.55;;;12.60;95.40;;;;;;5036844;28;20480;-54
2021/11/13 09:00:17;;;;;;;50.80;30.73;;;12.90;95.30;;;;;;5042496;28;20029;-53
2021/11/13 09:02:43;;;;;;;48.58;31.33;;;12.70;95.60;;;;;;5053629;28;20047;-56
2021/11/13 09:05:09;;;;;;;49.95;31.00;;;12.90;95.30;;;;;;5053395;28;20112;-56
2021/11/13 09:07:36;;;;;;;48.88;30.25;;;13.00;95.20;;;;;;5043388;28;20636;-57
2021/11/13 09:10:03;;;;;;;47.20;30.63;;;13.00;95.10;;;;;;5034671;28;20026;-54
2021/11/13 09:12:31;;;;;;;48.83;30.65;;;13.00;95.10;;;;;;5037880;28;20482;-55
2021/11/13 09:15:03;;;;;;;51.20;31.52;;;13.10;94.80;;;;;;5054543;28;20394;-55
2021/11/13 09:17:30;;;;;;;47.50;29.30;;;13.20;94.50;;;;;;5053264;28;20032;-55
2021/11/13 09:19:57;;;;;;;47.53;28.42;;;13.20;94.60;;;;;;5054031;28;20051;-55
2021/11/13 09:22:23;;;;;;;47.67;30.58;;;13.20;94.60;;;;;;5052790;28;20115;-55
2021/11/13 09:24:48;;;;;;;47.15;32.08;;;13.30;94.30;;;;;;5052786;28;20032;-56
2021/11/13 09:27:15;;;;;;;47.28;30.30;;;13.30;94.30;;;;;;5052968;28;20032;-58
2021/11/13 09:29:41;;;;;;;48.20;30.27;;;13.30;94.40;;;;;;5075893;28;20028;-58
2021/11/13 09:32:06;;;;;;;46.80;31.20;;;13.40;93.50;;;;;;5067758;28;20108;-56
2021/11/13 09:34:32;;;;;;;49.10;32.20;;;13.50;94.00;;;;;;5054295;28;20028;-57
2021/11/13 09:36:58;;;;;;;51.67;32.25;;;13.40;92.80;;;;;;5050021;28;20083;-57
2021/11/13 09:39:24;;;;;;;54.85;33.55;;;13.50;93.50;;;;;;5034053;28;20411;-55
2021/11/13 09:41:50;;;;;;;55.28;33.28;;;13.60;92.90;;;;;;5034216;28;20033;-53
2021/11/13 09:44:19;;;;;;;56.88;34.30;;;13.60;92.90;;;;;;5053654;28;20390;-53
2021/11/13 09:46:51;;;;;;;59.85;35.00;;;13.70;92.10;;;;;;5050221;28;20029;-56
2021/11/13 09:49:17;;;;;;;64.47;36.03;;;13.70;92.00;;;;;;5053750;28;20037;-58
2021/11/13 09:51:44;;;;;;;62.65;36.13;;;13.60;92.40;;;;;;5052316;28;20486;-56
2021/11/13 09:54:10;;;;;;;70.07;37.47;;;13.70;92.60;;;;;;5053985;28;20401;-57
2021/11/13 09:56:36;;;;;;;64.68;37.03;;;13.70;92.40;;;;;;5053005;28;20021;-58
2021/11/13 09:59:03;;;;;;;69.55;38.00;;;13.70;92.40;;;;;;5053030;28;20027;-57
2021/11/13 10:01:31;;;;;;;68.43;38.45;;;13.80;92.60;;;;;;5053408;28;20029;-57
2021/11/13 10:03:56;;;;;;;75.13;38.72;;;13.80;92.30;;;;;;5051309;28;20104;-57
2021/11/13 10:06:22;;;;;;;73.57;39.35;;;13.90;92.40;;;;;;5039390;28;20108;-57
2021/11/13 10:08:49;;;;;;;69.97;37.78;;;13.90;92.20;;;;;;5045509;28;20079;-55
2021/11/13 10:11:21;;;;;;;72.32;39.95;;;14.10;92.30;;;;;;5053519;28;20074;-55
2021/11/13 10:13:52;;;;;;;83.22;43.28;;;14.10;91.70;;;;;;5052344;28;20028;-55
2021/11/13 10:16:44;;;;;;;87.57;46.00;;;14.00;92.60;;;;;;5052307;28;20028;-55
2021/11/13 10:19:16;;;;;;;91.10;47.67;;;14.20;92.40;;;;;;5052124;28;20032;-53
2021/11/13 10:21:44;;;;;;;90.60;46.03;;;14.20;92.40;;;;;;5052910;28;20056;-55
2021/11/13 10:24:14;;;;;;;96.28;48.65;;;14.10;92.80;;;;;;5052326;28;20055;-54
2021/11/13 10:26:44;;;;;;;96.93;49.03;;;14.10;92.40;;;;;;5052991;28;20078;-57
2021/11/13 10:29:15;;;;;;;96.50;51.88;;;14.10;92.10;;;;;;5052330;28;20021;-54
2021/11/13 10:31:43;;;;;;;97.07;51.35;;;14.10;92.60;;;;;;5053122;28;20025;-55
2021/11/13 10:34:12;;;;;;;86.55;47.45;;;14.30;92.40;;;;;;5050984;28;20119;-56
2021/11/13 10:36:41;;;;;;;95.60;47.03;;;14.40;92.30;;;;;;5052970;28;20024;-55
2021/11/13 10:39:14;;;;;;;88.20;47.47;;;14.50;92.10;;;;;;5051717;28;20032;-57
2021/11/13 10:41:59;;;;;;;94.57;48.72;;;14.60;91.40;;;;;;5052152;28;20036;-57
2021/11/13 10:44:45;;;;;;;96.05;50.80;;;14.40;91.20;;;;;;5051422;28;20029;-56
2021/11/13 10:47:17;;;;;;;93.47;48.08;;;14.40;91.90;;;;;;5052928;28;20017;-57
2021/11/13 10:49:45;;;;;;;86.43;47.13;;;14.50;91.80;;;;;;5051876;28;20111;-53
2021/11/13 10:52:12;;;;;;;85.47;48.90;;;14.60;91.80;;;;;;5052823;28;20143;-52
2021/11/13 10:54:59;;;;;;;90.38;49.35;;;14.70;91.70;;;;;;5052013;28;20057;-54
2021/11/13 10:57:29;;;;;;;90.53;46.83;;;14.50;91.70;;;;;;5052360;28;20429;-56
2021/11/13 11:00:10;;;;;;;83.63;47.58;;;14.50;91.40;;;;;;5032815;28;20040;-50
2021/11/13 11:02:35;;;;;;;83.82;45.58;;;14.30;92.10;;;;;;5032972;28;20438;-54
2021/11/13 11:05:14;;;;;;;78.75;46.00;;;14.20;92.60;;;;;;5049663;28;20022;-53
2021/11/13 11:07:40;;;;;;;78.05;45.25;;;14.40;92.10;;;;;;5051347;28;20052;-52
2021/11/13 11:10:08;;;;;;;84.18;47.00;;;14.50;92.00;;;;;;5052711;28;20462;-53
2021/11/13 11:12:36;;;;;;;78.57;45.95;;;14.50;92.00;;;;;;5051623;28;20033;-54
2021/11/13 11:15:10;;;;;;;83.00;47.17;;;14.60;91.90;;;;;;5032607;28;20048;-56
2021/11/13 11:17:36;;;;;;;;;;;14.70;91.50;;;;;;5032853;28;20025;-54
2021/11/13 11:20:25;;;;;;;78.55;45.15;;;14.80;91.00;;;;;;5052189;28;19924;-58
2021/11/13 11:22:50;;;;;;;83.63;46.17;;;15.00;91.00;;;;;;5051134;28;20138;-57
2021/11/13 11:25:17;;;;;;;70.00;44.53;;;15.20;91.30;;;;;;5052527;28;20025;-57
2021/11/13 11:27:47;;;;;;;77.18;44.63;;;15.30;87.10;;;;;;5049839;28;20021;-55
2021/11/13 11:30:23;;;;;;;80.28;46.25;;;15.50;81.60;;;;;;5035711;28;20117;-54
2021/11/13 11:32:57;;;;;;;77.72;45.47;;;15.50;82.20;;;;;;5033554;28;20033;-56
2021/11/13 11:35:27;;;;;;;74.80;46.55;;;15.80;81.00;;;;;;5052668;28;20033;-57
2021/11/13 11:37:59;;;;;;;69.22;42.58;;;15.90;77.20;;;;;;5050223;28;20029;-58
2021/11/13 11:40:38;;;;;;;70.25;44.33;;;15.90;76.00;;;;;;5032348;28;20041;-59
2021/11/13 11:43:04;;;;;;;67.88;41.88;;;16.10;76.80;;;;;;5035021;28;20028;-58
2021/11/13 11:45:40;;;;;;;71.15;44.55;;;16.20;81.30;;;;;;5067885;28;20487;-54
2021/11/13 11:48:09;;;;;;;72.47;43.20;;;16.30;86.70;;;;;;5049150;28;20509;-55
2021/11/13 11:50:35;;;;;;;65.40;44.53;;;16.40;93.40;;;;;;5043084;28;20094;-55
2021/11/13 11:53:05;;;;;;;63.75;41.63;;;16.20;95.70;;;;;;5048107;28;20684;-56
2021/11/13 11:55:32;;;;;;;70.15;44.33;;;16.50;90.70;;;;;;5033464;28;20056;-57
2021/11/13 11:58:00;;;;;;;71.15;44.17;;;16.60;84.20;;;;;;5052560;28;20034;-56
2021/11/13 12:00:29;;;;;;;69.65;44.78;;;16.40;85.90;;;;;;5054806;28;20025;-58
2021/11/13 12:02:57;;;;;;;66.30;43.28;;;16.60;86.90;;;;;;5054358;28;20095;-56
2021/11/13 12:05:26;;;;;;;66.75;41.92;;;16.50;86.30;;;;;;5055725;28;20486;-57
2021/11/13 12:07:54;;;;;;;64.90;43.47;;;16.60;86.10;;;;;;5054382;28;20100;-57
2021/11/13 12:10:20;;;;;;;69.78;43.65;;;16.50;85.10;;;;;;5055511;28;20035;-57
2021/11/13 12:16:07;;;;;;;69.75;46.33;;;16.60;82.90;;;;;;5049851;28;20094;-56
2021/11/13 12:18:42;;;;;;;75.10;48.92;;;16.50;86.60;;;;;;5054227;28;20029;-58
2021/11/13 12:21:09;;;;;;;87.60;58.05;;;16.60;85.20;;;;;;5054378;28;20891;-57
2021/11/13 12:23:43;;;;;;;77.38;51.38;;;16.70;84.70;;;;;;5052036;28;20036;-56
2021/11/13 12:26:33;;;;;;;78.25;53.25;;;16.70;83.80;;;;;;5055317;28;20021;-56
2021/11/13 12:29:02;;;;;;;71.60;48.60;;;16.40;83.90;;;;;;5053302;28;20017;-56
2021/11/13 12:31:37;;;;;;;79.20;50.22;;;16.50;85.20;;;;;;5053536;28;20438;-54
2021/11/13 12:34:24;;;;;;;75.03;48.95;;;16.30;84.70;;;;;;5053045;28;20044;-56